sensor_id;sensor_type;location;lat;lon;timestamp;temperature;humidity
13164;DHT22;6647;53.688;10.746;2023-06-10T00:00:01;16.60;99.90
13164;DHT22;6647;53.688;10.746;2023-06-10T00:01:03;16.60;99.90
13164;DHT22;6647;53.688;10.746;2023-06-10T00:02:05;16.60;99.90
13164;DHT22;6647;53.688;10.746;2023-06-10T00:03:06;16.60;99.90
13164;DHT22;6647;53.688;10.746;2023-06-10T00:04:08;16.50;99.90
13164;DHT22;6647;53.688;10.746;2023-06-10T00:05:09;16.50;99.90
13164;DHT22;6647;53.688;10.746;2023-06-10T00:06:10;16.50;99.90
13164;DHT22;6647;53.688;10.746;2023-06-10T00:07:11;16.50;99.90
13164;DHT22;6647;53.688;10.746;2023-06-10T00:08:12;16.50;99.90
13164;DHT22;6647;53.688;10.746;2023-06-10T00:09:16;16.50;99.90
13164;DHT22;6647;53.688;10.746;2023-06-10T00:10:16;16.40;99.90
13164;DHT22;6647;53.688;10.746;2023-06-10T00:11:17;16.40;99.90
13164;DHT22;6647;53.688;10.746;2023-06-10T00:12:18;16.40;99.90
13164;DHT22;6647;53.688;10.746;2023-06-10T00:13:21;16.40;99.90
13164;DHT22;6647;53.688;10.746;2023-06-10T00:14:21;16.40;99.90
13164;DHT22;6647;53.688;10.746;2023-06-10T00:15:22;16.40;99.90
13164;DHT22;6647;53.688;10.746;2023-06-10T00:16:23;16.40;99.90
13164;DHT22;6647;53.688;10.746;2023-06-10T00:17:23;16.40;99.90
13164;DHT22;6647;53.688;10.746;2023-06-10T00:18:25;16.40;99.90
13164;DHT22;6647;53.688;10.746;2023-06-10T00:19:28;16.30;99.90
13164;DHT22;6647;53.688;10.746;2023-06-10T00:20:31;16.30;99.90
13164;DHT22;6647;53.688;10.746;2023-06-10T00:21:34;16.30;99.90
13164;DHT22;6647;53.688;10.746;2023-06-10T00:22:40;16.30;99.90
13164;DHT22;6647;53.688;10.746;2023-06-10T00:23:46;16.30;99.90
13164;DHT22;6647;53.688;10.746;2023-06-10T00:24:46;16.20;99.90
13164;DHT22;6647;53.688;10.746;2023-06-10T00:25:48;16.20;99.90
13164;DHT22;6647;53.688;10.746;2023-06-10T00:26:49;16.20;99.90
13164;DHT22;6647;53.688;10.746;2023-06-10T00:27:50;16.20;99.90
13164;DHT22;6647;53.688;10.746;2023-06-10T00:28:50;16.20;99.90
13164;DHT22;6647;53.688;10.746;2023-06-10T00:29:53;16.20;99.90
13164;DHT22;6647;53.688;10.746;2023-06-10T00:30:53;16.20;99.90
13164;DHT22;6647;53.688;10.746;2023-06-10T00:31:55;16.10;99.90
13164;DHT22;6647;53.688;10.746;2023-06-10T00:32:58;16.10;99.90
13164;DHT22;6647;53.688;10.746;2023-06-10T00:33:58;16.10;99.90
13164;DHT22;6647;53.688;10.746;2023-06-10T00:34:59;16.10;99.90
13164;DHT22;6647;53.688;10.746;2023-06-10T00:36:00;16.10;99.90
13164;DHT22;6647;53.688;10.746;2023-06-10T00:37:01;16.10;99.90
13164;DHT22;6647;53.688;10.746;2023-06-10T00:38:02;16.00;99.90
13164;DHT22;6647;53.688;10.746;2023-06-10T00:39:03;16.00;99.90
13164;DHT22;6647;53.688;10.746;2023-06-10T00:40:06;16.00;99.90
13164;DHT22;6647;53.688;10.746;2023-06-10T00:41:09;16.00;99.90
13164;DHT22;6647;53.688;10.746;2023-06-10T00:42:10;16.00;99.90
13164;DHT22;6647;53.688;10.746;2023-06-10T00:43:12;15.90;99.90
13164;DHT22;6647;53.688;10.746;2023-06-10T00:44:13;16.00;99.90
13164;DHT22;6647;53.688;10.746;2023-06-10T00:45:13;15.90;99.90
13164;DHT22;6647;53.688;10.746;2023-06-10T00:46:14;15.90;99.90
13164;DHT22;6647;53.688;10.746;2023-06-10T00:47:17;15.90;99.90
13164;DHT22;6647;53.688;10.746;2023-06-10T00:48:18;15.90;99.90
13164;DHT22;6647;53.688;10.746;2023-06-10T00:49:19;15.90;99.90
13164;DHT22;6647;53.688;10.746;2023-06-10T00:50:20;15.90;99.90
13164;DHT22;6647;53.688;10.746;2023-06-10T00:51:21;15.90;99.90
13164;DHT22;6647;53.688;10.746;2023-06-10T00:52:27;15.90;99.90
13164;DHT22;6647;53.688;10.746;2023-06-10T00:53:28;15.90;99.90
13164;DHT22;6647;53.688;10.746;2023-06-10T00:54:29;15.90;99.90
13164;DHT22;6647;53.688;10.746;2023-06-10T00:55:32;15.80;99.90
13164;DHT22;6647;53.688;10.746;2023-06-10T00:56:33;15.80;99.90
13164;DHT22;6647;53.688;10.746;2023-06-10T00:57:36;15.80;99.90
13164;DHT22;6647;53.688;10.746;2023-06-10T00:58:38;15.80;99.90
13164;DHT22;6647;53.688;10.746;2023-06-10T00:59:41;15.80;99.90
13164;DHT22;6647;53.688;10.746;2023-06-10T01:00:43;15.80;99.90
13164;DHT22;6647;53.688;10.746;2023-06-10T01:01:46;15.80;99.90
13164;DHT22;6647;53.688;10.746;2023-06-10T01:02:47;15.80;99.90
13164;DHT22;6647;53.688;10.746;2023-06-10T01:03:49;15.70;99.90
13164;DHT22;6647;53.688;10.746;2023-06-10T01:04:50;15.70;99.90
13164;DHT22;6647;53.688;10.746;2023-06-10T01:05:59;15.70;99.90
13164;DHT22;6647;53.688;10.746;2023-06-10T01:07:20;15.70;99.90
13164;DHT22;6647;53.688;10.746;2023-06-10T01:08:46;15.60;99.90
13164;DHT22;6647;53.688;10.746;2023-06-10T01:10:02;15.60;99.90
13164;DHT22;6647;53.688;10.746;2023-06-10T01:11:08;15.60;99.90
13164;DHT22;6647;53.688;10.746;2023-06-10T01:12:43;15.60;99.90
13164;DHT22;6647;53.688;10.746;2023-06-10T01:13:50;15.60;99.90
13164;DHT22;6647;53.688;10.746;2023-06-10T01:14:52;15.60;99.90
13164;DHT22;6647;53.688;10.746;2023-06-10T01:15:54;15.60;99.90
13164;DHT22;6647;53.688;10.746;2023-06-10T01:16:55;15.60;99.90
13164;DHT22;6647;53.688;10.746;2023-06-10T01:18:01;15.60;99.90
13164;DHT22;6647;53.688;10.746;2023-06-10T01:19:03;15.60;99.90
13164;DHT22;6647;53.688;10.746;2023-06-10T01:20:04;15.50;99.90
13164;DHT22;6647;53.688;10.746;2023-06-10T01:21:05;15.50;99.90
13164;DHT22;6647;53.688;10.746;2023-06-10T01:22:08;15.60;99.90
13164;DHT22;6647;53.688;10.746;2023-06-10T01:23:10;15.60;99.90
13164;DHT22;6647;53.688;10.746;2023-06-10T01:24:11;15.60;99.90
13164;DHT22;6647;53.688;10.746;2023-06-10T01:25:12;15.60;99.90
13164;DHT22;6647;53.688;10.746;2023-06-10T01:26:15;15.50;99.90
13164;DHT22;6647;53.688;10.746;2023-06-10T01:27:19;15.50;99.90
13164;DHT22;6647;53.688;10.746;2023-06-10T01:28:36;15.50;99.90
13164;DHT22;6647;53.688;10.746;2023-06-10T01:29:45;15.50;99.90
13164;DHT22;6647;53.688;10.746;2023-06-10T01:32:15;15.50;99.90
13164;DHT22;6647;53.688;10.746;2023-06-10T01:33:27;15.50;99.90
13164;DHT22;6647;53.688;10.746;2023-06-10T01:34:30;15.50;99.90
13164;DHT22;6647;53.688;10.746;2023-06-10T01:35:31;15.50;99.90
13164;DHT22;6647;53.688;10.746;2023-06-10T01:36:33;15.40;99.90
13164;DHT22;6647;53.688;10.746;2023-06-10T01:37:36;15.50;99.90
13164;DHT22;6647;53.688;10.746;2023-06-10T01:38:46;15.40;99.90
13164;DHT22;6647;53.688;10.746;2023-06-10T01:39:49;15.40;99.90
13164;DHT22;6647;53.688;10.746;2023-06-10T01:40:51;15.50;99.90
13164;DHT22;6647;53.688;10.746;2023-06-10T01:41:53;15.40;99.90
13164;DHT22;6647;53.688;10.746;2023-06-10T01:42:54;15.40;99.90
13164;DHT22;6647;53.688;10.746;2023-06-10T01:43:55;15.40;99.90
13164;DHT22;6647;53.688;10.746;2023-06-10T01:44:56;15.40;99.90
13164;DHT22;6647;53.688;10.746;2023-06-10T01:45:56;15.40;99.90
13164;DHT22;6647;53.688;10.746;2023-06-10T01:46:57;15.40;99.90
13164;DHT22;6647;53.688;10.746;2023-06-10T01:47:58;15.40;99.90
13164;DHT22;6647;53.688;10.746;2023-06-10T01:48:59;15.40;99.90
13164;DHT22;6647;53.688;10.746;2023-06-10T01:50:00;15.40;99.90
13164;DHT22;6647;53.688;10.746;2023-06-10T01:51:01;15.30;99.90
13164;DHT22;6647;53.688;10.746;2023-06-10T01:52:02;15.40;99.90
13164;DHT22;6647;53.688;10.746;2023-06-10T01:53:04;15.30;99.90
13164;DHT22;6647;53.688;10.746;2023-06-10T01:54:06;15.30;99.90
13164;DHT22;6647;53.688;10.746;2023-06-10T01:55:07;15.40;99.90
13164;DHT22;6647;53.688;10.746;2023-06-10T01:56:08;15.40;99.90
13164;DHT22;6647;53.688;10.746;2023-06-10T01:57:09;15.30;99.90
13164;DHT22;6647;53.688;10.746;2023-06-10T01:58:10;15.30;99.90
13164;DHT22;6647;53.688;10.746;2023-06-10T01:59:11;15.30;99.90
13164;DHT22;6647;53.688;10.746;2023-06-10T02:00:13;15.30;99.90
13164;DHT22;6647;53.688;10.746;2023-06-10T02:01:14;15.30;99.90
13164;DHT22;6647;53.688;10.746;2023-06-10T02:02:15;15.30;99.90
13164;DHT22;6647;53.688;10.746;2023-06-10T02:03:16;15.30;99.90
13164;DHT22;6647;53.688;10.746;2023-06-10T02:04:17;15.30;99.90
13164;DHT22;6647;53.688;10.746;2023-06-10T02:05:18;15.30;99.90
13164;DHT22;6647;53.688;10.746;2023-06-10T02:06:20;15.30;99.90
13164;DHT22;6647;53.688;10.746;2023-06-10T02:07:22;15.30;99.90
13164;DHT22;6647;53.688;10.746;2023-06-10T02:08:23;15.20;99.90
13164;DHT22;6647;53.688;10.746;2023-06-10T02:09:25;15.20;99.90
13164;DHT22;6647;53.688;10.746;2023-06-10T02:10:25;15.20;99.90
13164;DHT22;6647;53.688;10.746;2023-06-10T02:11:26;15.20;99.90
13164;DHT22;6647;53.688;10.746;2023-06-10T02:12:28;15.20;99.90
13164;DHT22;6647;53.688;10.746;2023-06-10T02:13:29;15.20;99.90
13164;DHT22;6647;53.688;10.746;2023-06-10T02:14:32;15.20;99.90
13164;DHT22;6647;53.688;10.746;2023-06-10T02:15:33;15.20;99.90
13164;DHT22;6647;53.688;10.746;2023-06-10T02:16:35;15.20;99.90
13164;DHT22;6647;53.688;10.746;2023-06-10T02:17:36;15.20;99.90
13164;DHT22;6647;53.688;10.746;2023-06-10T02:18:38;15.20;99.90
13164;DHT22;6647;53.688;10.746;2023-06-10T02:19:41;15.20;99.90
13164;DHT22;6647;53.688;10.746;2023-06-10T02:20:43;15.20;99.90
13164;DHT22;6647;53.688;10.746;2023-06-10T02:21:44;15.20;99.90
13164;DHT22;6647;53.688;10.746;2023-06-10T02:22:45;15.20;99.90
13164;DHT22;6647;53.688;10.746;2023-06-10T02:23:46;15.20;99.90
13164;DHT22;6647;53.688;10.746;2023-06-10T02:24:48;15.20;99.90
13164;DHT22;6647;53.688;10.746;2023-06-10T02:25:48;15.10;99.90
13164;DHT22;6647;53.688;10.746;2023-06-10T02:26:49;15.20;99.90
13164;DHT22;6647;53.688;10.746;2023-06-10T02:27:51;15.10;99.90
13164;DHT22;6647;53.688;10.746;2023-06-10T02:28:51;15.10;99.90
13164;DHT22;6647;53.688;10.746;2023-06-10T02:29:52;15.10;99.90
13164;DHT22;6647;53.688;10.746;2023-06-10T02:30:53;15.10;99.90
13164;DHT22;6647;53.688;10.746;2023-06-10T02:31:53;15.10;99.90
13164;DHT22;6647;53.688;10.746;2023-06-10T02:32:54;15.10;99.90
13164;DHT22;6647;53.688;10.746;2023-06-10T02:33:56;15.10;99.90
13164;DHT22;6647;53.688;10.746;2023-06-10T02:34:57;15.00;99.90
13164;DHT22;6647;53.688;10.746;2023-06-10T02:35:58;15.10;99.90
13164;DHT22;6647;53.688;10.746;2023-06-10T02:36:59;15.10;99.90
13164;DHT22;6647;53.688;10.746;2023-06-10T02:38:00;15.00;99.90
13164;DHT22;6647;53.688;10.746;2023-06-10T02:39:01;15.00;99.90
13164;DHT22;6647;53.688;10.746;2023-06-10T02:40:02;15.00;99.90
13164;DHT22;6647;53.688;10.746;2023-06-10T02:41:04;15.00;99.90
13164;DHT22;6647;53.688;10.746;2023-06-10T02:42:05;15.00;99.90
13164;DHT22;6647;53.688;10.746;2023-06-10T02:43:06;15.00;99.90
13164;DHT22;6647;53.688;10.746;2023-06-10T02:44:06;15.00;99.90
13164;DHT22;6647;53.688;10.746;2023-06-10T02:45:07;14.90;99.90
13164;DHT22;6647;53.688;10.746;2023-06-10T02:46:08;15.00;99.90
13164;DHT22;6647;53.688;10.746;2023-06-10T02:47:09;14.90;99.90
13164;DHT22;6647;53.688;10.746;2023-06-10T02:48:10;15.00;99.90
13164;DHT22;6647;53.688;10.746;2023-06-10T02:49:11;14.90;99.90
13164;DHT22;6647;53.688;10.746;2023-06-10T02:50:12;15.00;99.90
13164;DHT22;6647;53.688;10.746;2023-06-10T02:51:13;14.90;99.90
13164;DHT22;6647;53.688;10.746;2023-06-10T02:52:14;14.90;99.90
13164;DHT22;6647;53.688;10.746;2023-06-10T02:53:15;14.90;99.90
13164;DHT22;6647;53.688;10.746;2023-06-10T02:54:16;14.90;99.90
13164;DHT22;6647;53.688;10.746;2023-06-10T02:55:17;14.90;99.90
13164;DHT22;6647;53.688;10.746;2023-06-10T02:56:18;14.90;99.90
13164;DHT22;6647;53.688;10.746;2023-06-10T02:57:27;14.90;99.90
13164;DHT22;6647;53.688;10.746;2023-06-10T02:58:28;14.90;99.90
13164;DHT22;6647;53.688;10.746;2023-06-10T02:59:29;15.00;99.90
13164;DHT22;6647;53.688;10.746;2023-06-10T03:00:30;14.90;99.90
13164;DHT22;6647;53.688;10.746;2023-06-10T03:01:32;14.90;99.90
13164;DHT22;6647;53.688;10.746;2023-06-10T03:02:32;15.00;99.90
13164;DHT22;6647;53.688;10.746;2023-06-10T03:03:37;14.90;99.90
13164;DHT22;6647;53.688;10.746;2023-06-10T03:04:41;14.90;99.90
13164;DHT22;6647;53.688;10.746;2023-06-10T03:05:44;14.90;99.90
13164;DHT22;6647;53.688;10.746;2023-06-10T03:06:45;14.90;99.90
13164;DHT22;6647;53.688;10.746;2023-06-10T03:07:48;14.90;99.90
13164;DHT22;6647;53.688;10.746;2023-06-10T03:08:48;14.90;99.90
13164;DHT22;6647;53.688;10.746;2023-06-10T03:09:49;14.90;99.90
13164;DHT22;6647;53.688;10.746;2023-06-10T03:10:50;14.90;99.90
13164;DHT22;6647;53.688;10.746;2023-06-10T03:11:51;14.80;99.90
13164;DHT22;6647;53.688;10.746;2023-06-10T03:12:52;14.90;99.90
13164;DHT22;6647;53.688;10.746;2023-06-10T03:13:53;14.80;99.90
13164;DHT22;6647;53.688;10.746;2023-06-10T03:14:54;14.90;99.90
13164;DHT22;6647;53.688;10.746;2023-06-10T03:15:55;14.80;99.90
13164;DHT22;6647;53.688;10.746;2023-06-10T03:16:56;14.90;99.90
13164;DHT22;6647;53.688;10.746;2023-06-10T03:17:57;14.90;99.90
13164;DHT22;6647;53.688;10.746;2023-06-10T03:18:58;14.80;99.90
13164;DHT22;6647;53.688;10.746;2023-06-10T03:19:59;14.80;99.90
13164;DHT22;6647;53.688;10.746;2023-06-10T03:21:01;14.80;99.90
13164;DHT22;6647;53.688;10.746;2023-06-10T03:22:14;14.80;99.90
13164;DHT22;6647;53.688;10.746;2023-06-10T03:23:14;14.80;99.90
13164;DHT22;6647;53.688;10.746;2023-06-10T03:24:16;14.80;99.90
13164;DHT22;6647;53.688;10.746;2023-06-10T03:25:17;14.80;99.90
13164;DHT22;6647;53.688;10.746;2023-06-10T03:26:20;14.80;99.90
13164;DHT22;6647;53.688;10.746;2023-06-10T03:27:23;14.80;99.90
13164;DHT22;6647;53.688;10.746;2023-06-10T03:28:24;14.70;99.90
13164;DHT22;6647;53.688;10.746;2023-06-10T03:29:25;14.70;99.90
13164;DHT22;6647;53.688;10.746;2023-06-10T03:30:30;14.80;99.90
13164;DHT22;6647;53.688;10.746;2023-06-10T03:31:31;14.80;99.90
13164;DHT22;6647;53.688;10.746;2023-06-10T03:32:31;14.80;99.90
13164;DHT22;6647;53.688;10.746;2023-06-10T03:33:32;14.80;99.90
13164;DHT22;6647;53.688;10.746;2023-06-10T03:34:33;14.80;99.90
13164;DHT22;6647;53.688;10.746;2023-06-10T03:35:34;14.70;99.90
13164;DHT22;6647;53.688;10.746;2023-06-10T03:36:36;14.80;99.90
13164;DHT22;6647;53.688;10.746;2023-06-10T03:37:37;14.70;99.90
13164;DHT22;6647;53.688;10.746;2023-06-10T03:38:39;14.80;99.90
13164;DHT22;6647;53.688;10.746;2023-06-10T03:39:39;14.80;99.90
13164;DHT22;6647;53.688;10.746;2023-06-10T03:40:40;14.80;99.90
13164;DHT22;6647;53.688;10.746;2023-06-10T03:41:42;14.70;99.90
13164;DHT22;6647;53.688;10.746;2023-06-10T03:42:43;14.80;99.90
13164;DHT22;6647;53.688;10.746;2023-06-10T03:43:44;14.70;99.90
13164;DHT22;6647;53.688;10.746;2023-06-10T03:44:45;14.70;99.90
13164;DHT22;6647;53.688;10.746;2023-06-10T03:45:47;14.70;99.90
13164;DHT22;6647;53.688;10.746;2023-06-10T03:46:48;14.70;99.90
13164;DHT22;6647;53.688;10.746;2023-06-10T03:47:49;14.80;99.90
13164;DHT22;6647;53.688;10.746;2023-06-10T03:48:50;14.80;99.90
13164;DHT22;6647;53.688;10.746;2023-06-10T03:49:51;14.80;99.90
13164;DHT22;6647;53.688;10.746;2023-06-10T03:50:53;14.80;99.90
13164;DHT22;6647;53.688;10.746;2023-06-10T03:51:54;14.80;99.90
13164;DHT22;6647;53.688;10.746;2023-06-10T03:52:55;14.80;99.90
13164;DHT22;6647;53.688;10.746;2023-06-10T03:53:56;14.80;99.90
13164;DHT22;6647;53.688;10.746;2023-06-10T03:54:57;14.80;99.90
13164;DHT22;6647;53.688;10.746;2023-06-10T03:55:57;14.80;99.90
13164;DHT22;6647;53.688;10.746;2023-06-10T03:56:58;14.80;99.90
13164;DHT22;6647;53.688;10.746;2023-06-10T03:57:59;14.80;99.90
13164;DHT22;6647;53.688;10.746;2023-06-10T03:58:59;14.80;99.90
13164;DHT22;6647;53.688;10.746;2023-06-10T04:00:00;14.80;99.90
13164;DHT22;6647;53.688;10.746;2023-06-10T04:01:03;14.80;99.90
13164;DHT22;6647;53.688;10.746;2023-06-10T04:02:04;14.80;99.90
13164;DHT22;6647;53.688;10.746;2023-06-10T04:03:08;14.80;99.90
13164;DHT22;6647;53.688;10.746;2023-06-10T04:04:09;14.80;99.90
13164;DHT22;6647;53.688;10.746;2023-06-10T04:05:20;14.90;99.90
13164;DHT22;6647;53.688;10.746;2023-06-10T04:06:23;14.90;99.90
13164;DHT22;6647;53.688;10.746;2023-06-10T04:07:27;14.90;99.90
13164;DHT22;6647;53.688;10.746;2023-06-10T04:08:28;14.90;99.90
13164;DHT22;6647;53.688;10.746;2023-06-10T04:09:30;14.90;99.90
13164;DHT22;6647;53.688;10.746;2023-06-10T04:10:30;14.90;99.90
13164;DHT22;6647;53.688;10.746;2023-06-10T04:11:31;14.90;99.90
13164;DHT22;6647;53.688;10.746;2023-06-10T04:12:33;14.90;99.90
13164;DHT22;6647;53.688;10.746;2023-06-10T04:13:34;14.90;99.90
13164;DHT22;6647;53.688;10.746;2023-06-10T04:14:35;14.90;99.90
13164;DHT22;6647;53.688;10.746;2023-06-10T04:15:38;14.90;99.90
13164;DHT22;6647;53.688;10.746;2023-06-10T04:16:38;14.90;99.90
13164;DHT22;6647;53.688;10.746;2023-06-10T04:17:39;14.90;99.90
13164;DHT22;6647;53.688;10.746;2023-06-10T04:18:40;14.90;99.90
13164;DHT22;6647;53.688;10.746;2023-06-10T04:19:42;14.90;99.90
13164;DHT22;6647;53.688;10.746;2023-06-10T04:20:43;15.00;99.90
13164;DHT22;6647;53.688;10.746;2023-06-10T04:21:45;15.00;99.90
13164;DHT22;6647;53.688;10.746;2023-06-10T04:22:47;15.00;99.90
13164;DHT22;6647;53.688;10.746;2023-06-10T04:23:48;15.00;99.90
13164;DHT22;6647;53.688;10.746;2023-06-10T04:24:49;15.00;99.90
13164;DHT22;6647;53.688;10.746;2023-06-10T04:25:49;15.00;99.90
13164;DHT22;6647;53.688;10.746;2023-06-10T04:26:50;15.00;99.90
13164;DHT22;6647;53.688;10.746;2023-06-10T04:27:51;15.00;99.90
13164;DHT22;6647;53.688;10.746;2023-06-10T04:28:53;15.00;99.90
13164;DHT22;6647;53.688;10.746;2023-06-10T04:29:54;15.10;99.90
13164;DHT22;6647;53.688;10.746;2023-06-10T04:30:55;15.10;99.90
13164;DHT22;6647;53.688;10.746;2023-06-10T04:31:56;15.10;99.90
13164;DHT22;6647;53.688;10.746;2023-06-10T04:32:58;15.10;99.90
13164;DHT22;6647;53.688;10.746;2023-06-10T04:33:59;15.10;99.90
13164;DHT22;6647;53.688;10.746;2023-06-10T04:35:02;15.10;99.90
13164;DHT22;6647;53.688;10.746;2023-06-10T04:36:02;15.20;99.90
13164;DHT22;6647;53.688;10.746;2023-06-10T04:37:03;15.20;99.90
13164;DHT22;6647;53.688;10.746;2023-06-10T04:38:04;15.20;99.90
13164;DHT22;6647;53.688;10.746;2023-06-10T04:39:05;15.20;99.90
13164;DHT22;6647;53.688;10.746;2023-06-10T04:40:07;15.20;99.90
13164;DHT22;6647;53.688;10.746;2023-06-10T04:41:07;15.20;99.90
13164;DHT22;6647;53.688;10.746;2023-06-10T04:42:08;15.20;99.90
13164;DHT22;6647;53.688;10.746;2023-06-10T04:43:10;15.20;99.90
13164;DHT22;6647;53.688;10.746;2023-06-10T04:44:12;15.10;99.90
13164;DHT22;6647;53.688;10.746;2023-06-10T04:45:14;15.10;99.90
13164;DHT22;6647;53.688;10.746;2023-06-10T04:46:15;15.20;99.90
13164;DHT22;6647;53.688;10.746;2023-06-10T04:47:16;15.20;99.90
13164;DHT22;6647;53.688;10.746;2023-06-10T04:48:17;15.20;99.90
13164;DHT22;6647;53.688;10.746;2023-06-10T04:49:18;15.20;99.90
13164;DHT22;6647;53.688;10.746;2023-06-10T04:50:19;15.20;99.90
13164;DHT22;6647;53.688;10.746;2023-06-10T04:51:20;15.30;99.90
13164;DHT22;6647;53.688;10.746;2023-06-10T04:52:21;15.30;99.90
13164;DHT22;6647;53.688;10.746;2023-06-10T04:53:22;15.30;99.90
13164;DHT22;6647;53.688;10.746;2023-06-10T04:54:23;15.30;99.90
13164;DHT22;6647;53.688;10.746;2023-06-10T04:55:24;15.30;99.90
13164;DHT22;6647;53.688;10.746;2023-06-10T04:56:25;15.40;99.90
13164;DHT22;6647;53.688;10.746;2023-06-10T04:57:26;15.40;99.90
13164;DHT22;6647;53.688;10.746;2023-06-10T04:58:27;15.40;99.90
13164;DHT22;6647;53.688;10.746;2023-06-10T04:59:27;15.40;99.90
13164;DHT22;6647;53.688;10.746;2023-06-10T05:00:28;15.40;99.90
13164;DHT22;6647;53.688;10.746;2023-06-10T05:01:29;15.40;99.90
13164;DHT22;6647;53.688;10.746;2023-06-10T05:02:30;15.40;99.90
13164;DHT22;6647;53.688;10.746;2023-06-10T05:03:31;15.50;99.90
13164;DHT22;6647;53.688;10.746;2023-06-10T05:04:32;15.50;99.90
13164;DHT22;6647;53.688;10.746;2023-06-10T05:05:33;15.50;99.90
13164;DHT22;6647;53.688;10.746;2023-06-10T05:06:34;15.50;99.90
13164;DHT22;6647;53.688;10.746;2023-06-10T05:07:36;15.50;99.90
13164;DHT22;6647;53.688;10.746;2023-06-10T05:08:37;15.50;99.90
13164;DHT22;6647;53.688;10.746;2023-06-10T05:09:37;15.60;99.90
13164;DHT22;6647;53.688;10.746;2023-06-10T05:10:39;15.60;99.90
13164;DHT22;6647;53.688;10.746;2023-06-10T05:11:40;15.60;99.90
13164;DHT22;6647;53.688;10.746;2023-06-10T05:12:41;15.60;99.90
13164;DHT22;6647;53.688;10.746;2023-06-10T05:13:43;15.60;99.90
13164;DHT22;6647;53.688;10.746;2023-06-10T05:14:44;15.60;99.90
13164;DHT22;6647;53.688;10.746;2023-06-10T05:15:45;15.70;99.90
13164;DHT22;6647;53.688;10.746;2023-06-10T05:16:48;15.70;99.90
13164;DHT22;6647;53.688;10.746;2023-06-10T05:17:49;15.70;99.90
13164;DHT22;6647;53.688;10.746;2023-06-10T05:18:50;15.70;99.90
13164;DHT22;6647;53.688;10.746;2023-06-10T05:19:52;15.70;99.90
13164;DHT22;6647;53.688;10.746;2023-06-10T05:20:53;15.80;99.90
13164;DHT22;6647;53.688;10.746;2023-06-10T05:21:55;15.80;99.90
13164;DHT22;6647;53.688;10.746;2023-06-10T05:22:56;15.80;99.90
13164;DHT22;6647;53.688;10.746;2023-06-10T05:23:57;15.80;99.90
13164;DHT22;6647;53.688;10.746;2023-06-10T05:24:57;15.80;99.90
13164;DHT22;6647;53.688;10.746;2023-06-10T05:25:58;15.90;99.90
13164;DHT22;6647;53.688;10.746;2023-06-10T05:27:00;15.80;99.90
13164;DHT22;6647;53.688;10.746;2023-06-10T05:28:01;15.90;99.90
13164;DHT22;6647;53.688;10.746;2023-06-10T05:29:04;15.90;99.90
13164;DHT22;6647;53.688;10.746;2023-06-10T05:30:05;15.90;99.90
13164;DHT22;6647;53.688;10.746;2023-06-10T05:31:08;16.00;99.90
13164;DHT22;6647;53.688;10.746;2023-06-10T05:32:09;16.00;99.90
13164;DHT22;6647;53.688;10.746;2023-06-10T05:33:11;16.00;99.90
13164;DHT22;6647;53.688;10.746;2023-06-10T05:34:12;16.00;99.90
13164;DHT22;6647;53.688;10.746;2023-06-10T05:35:14;16.00;99.90
13164;DHT22;6647;53.688;10.746;2023-06-10T05:36:14;16.00;99.90
13164;DHT22;6647;53.688;10.746;2023-06-10T05:37:15;16.10;99.90
13164;DHT22;6647;53.688;10.746;2023-06-10T05:38:16;16.10;99.90
13164;DHT22;6647;53.688;10.746;2023-06-10T05:39:17;16.10;99.90
13164;DHT22;6647;53.688;10.746;2023-06-10T05:40:17;16.10;99.90
13164;DHT22;6647;53.688;10.746;2023-06-10T05:41:18;16.10;99.90
13164;DHT22;6647;53.688;10.746;2023-06-10T05:42:19;16.20;99.90
13164;DHT22;6647;53.688;10.746;2023-06-10T05:43:20;16.20;99.90
13164;DHT22;6647;53.688;10.746;2023-06-10T05:44:21;16.20;99.90
13164;DHT22;6647;53.688;10.746;2023-06-10T05:45:22;16.30;99.90
13164;DHT22;6647;53.688;10.746;2023-06-10T05:46:23;16.30;99.90
13164;DHT22;6647;53.688;10.746;2023-06-10T05:47:24;16.30;99.90
13164;DHT22;6647;53.688;10.746;2023-06-10T05:48:25;16.30;99.90
13164;DHT22;6647;53.688;10.746;2023-06-10T05:49:27;16.40;99.90
13164;DHT22;6647;53.688;10.746;2023-06-10T05:50:28;16.40;99.90
13164;DHT22;6647;53.688;10.746;2023-06-10T05:51:28;16.40;99.90
13164;DHT22;6647;53.688;10.746;2023-06-10T05:52:30;16.40;99.90
13164;DHT22;6647;53.688;10.746;2023-06-10T05:53:32;16.40;99.90
13164;DHT22;6647;53.688;10.746;2023-06-10T05:54:32;16.50;99.90
13164;DHT22;6647;53.688;10.746;2023-06-10T05:55:33;16.40;99.90
13164;DHT22;6647;53.688;10.746;2023-06-10T05:56:34;16.50;99.90
13164;DHT22;6647;53.688;10.746;2023-06-10T05:57:35;16.50;99.90
13164;DHT22;6647;53.688;10.746;2023-06-10T05:58:37;16.50;99.90
13164;DHT22;6647;53.688;10.746;2023-06-10T05:59:37;16.50;99.90
13164;DHT22;6647;53.688;10.746;2023-06-10T06:00:39;16.50;99.90
13164;DHT22;6647;53.688;10.746;2023-06-10T06:01:40;16.50;99.90
13164;DHT22;6647;53.688;10.746;2023-06-10T06:02:41;16.60;99.90
13164;DHT22;6647;53.688;10.746;2023-06-10T06:03:42;16.60;99.90
13164;DHT22;6647;53.688;10.746;2023-06-10T06:04:43;16.60;99.90
13164;DHT22;6647;53.688;10.746;2023-06-10T06:05:44;16.60;99.90
13164;DHT22;6647;53.688;10.746;2023-06-10T06:06:46;16.60;99.90
13164;DHT22;6647;53.688;10.746;2023-06-10T06:07:48;16.70;99.90
13164;DHT22;6647;53.688;10.746;2023-06-10T06:08:48;16.70;99.90
13164;DHT22;6647;53.688;10.746;2023-06-10T06:09:49;16.70;99.90
13164;DHT22;6647;53.688;10.746;2023-06-10T06:10:50;16.70;99.90
13164;DHT22;6647;53.688;10.746;2023-06-10T06:11:51;16.80;99.90
13164;DHT22;6647;53.688;10.746;2023-06-10T06:12:52;16.80;99.90
13164;DHT22;6647;53.688;10.746;2023-06-10T06:13:52;16.80;99.90
13164;DHT22;6647;53.688;10.746;2023-06-10T06:14:53;16.80;99.90
13164;DHT22;6647;53.688;10.746;2023-06-10T06:15:54;16.90;99.90
13164;DHT22;6647;53.688;10.746;2023-06-10T06:16:55;16.90;99.90
13164;DHT22;6647;53.688;10.746;2023-06-10T06:17:56;16.90;99.90
13164;DHT22;6647;53.688;10.746;2023-06-10T06:18:56;16.90;99.90
13164;DHT22;6647;53.688;10.746;2023-06-10T06:19:57;16.90;99.90
13164;DHT22;6647;53.688;10.746;2023-06-10T06:20:58;17.00;99.90
13164;DHT22;6647;53.688;10.746;2023-06-10T06:21:58;17.00;99.90
13164;DHT22;6647;53.688;10.746;2023-06-10T06:23:01;17.00;99.90
13164;DHT22;6647;53.688;10.746;2023-06-10T06:24:02;17.00;99.90
13164;DHT22;6647;53.688;10.746;2023-06-10T06:25:03;17.10;99.90
13164;DHT22;6647;53.688;10.746;2023-06-10T06:26:04;17.00;99.90
13164;DHT22;6647;53.688;10.746;2023-06-10T06:27:05;17.10;99.90
13164;DHT22;6647;53.688;10.746;2023-06-10T06:28:06;17.10;99.90
13164;DHT22;6647;53.688;10.746;2023-06-10T06:29:07;17.10;99.90
13164;DHT22;6647;53.688;10.746;2023-06-10T06:30:09;17.20;99.90
13164;DHT22;6647;53.688;10.746;2023-06-10T06:31:10;17.20;99.90